Time;durP1;ratioP1;P1;durP2;ratioP2;P2;SDS_P1;SDS_P2;PMS_P1;PMS_P2;Temp;Humidity;BMP_temperature;BMP_pressure;BME280_temperature;BME280_humidity;BME280_pressure;Samples;Min_cycle;Max_cycle;Signal;HPM_P1;HPM_P2
2021/12/12 00:00:14;;;;;;;12.98;5.28;;;4.00;99.90;;;;;;5111406;28;20403;-52
2021/12/12 00:02:57;;;;;;;13.45;5.63;;;4.10;99.90;;;;;;5113200;28;20487;-52
2021/12/12 00:05:29;;;;;;;10.43;4.75;;;4.10;99.90;;;;;;5113204;28;20377;-57
2021/12/12 00:07:55;;;;;;;10.23;4.90;;;4.00;99.90;;;;;;5113771;28;20365;-52
2021/12/12 00:10:25;;;;;;;13.18;4.80;;;4.00;99.90;;;;;;5112302;28;21045;-52
2021/12/12 00:12:55;;;;;;;12.48;4.22;;;3.90;99.90;;;;;;5113711;28;20434;-52
2021/12/12 00:15:22;;;;;;;10.98;5.00;;;3.80;99.90;;;;;;5113150;28;20832;-57
2021/12/12 00:17:48;;;;;;;13.13;5.72;;;3.80;99.90;;;;;;5113075;28;20470;-52
2021/12/12 00:20:18;;;;;;;9.85;4.88;;;3.90;99.90;;;;;;5113369;28;20400;-52
2021/12/12 00:22:44;;;;;;;14.13;5.15;;;3.90;99.90;;;;;;5112749;28;20376;-52
2021/12/12 00:25:11;;;;;;;9.10;4.55;;;3.90;99.90;;;;;;5113175;28;20399;-53
2021/12/12 00:27:37;;;;;;;14.15;4.90;;;3.90;99.90;;;;;;5111209;28;20430;-52
2021/12/12 00:30:06;;;;;;;11.93;5.03;;;3.80;99.90;;;;;;5112135;28;20392;-52
2021/12/12 00:32:36;;;;;;;13.32;5.13;;;3.80;99.90;;;;;;5112603;28;20388;-53
2021/12/12 00:35:04;;;;;;;11.32;5.10;;;4.00;99.90;;;;;;5113365;28;20380;-52
2021/12/12 00:37:31;;;;;;;10.70;5.20;;;3.70;99.90;;;;;;5112232;28;20430;-52
2021/12/12 00:40:06;;;;;;;11.73;5.70;;;3.70;99.90;;;;;;5113297;28;20508;-52
2021/12/12 00:42:35;;;;;;;12.05;5.15;;;3.70;99.90;;;;;;5112409;28;20483;-52
2021/12/12 00:45:06;;;;;;;12.95;5.50;;;3.60;99.90;;;;;;5112902;28;20834;-52
2021/12/12 00:47:32;;;;;;;10.47;4.70;;;3.60;99.90;;;;;;5111567;28;20403;-53
2021/12/12 00:49:58;;;;;;;11.00;5.00;;;3.60;99.90;;;;;;5113069;28;20857;-52
2021/12/12 00:52:24;;;;;;;10.00;5.65;;;4.90;99.90;;;;;;5112551;28;20768;-57
2021/12/12 00:54:51;;;;;;;11.27;5.60;;;3.60;99.90;;;;;;5112454;28;20372;-53
2021/12/12 00:57:20;;;;;;;11.98;5.03;;;5.10;99.90;;;;;;5112698;28;20463;-52
2021/12/12 00:59:47;;;;;;;14.05;5.60;;;3.70;99.90;;;;;;5111798;28;21157;-53
2021/12/12 01:02:17;;;;;;;13.88;5.70;;;3.80;99.90;;;;;;5112643;28;20380;-53
2021/12/12 01:04:46;;;;;;;10.32;5.15;;;3.80;99.90;;;;;;5112265;28;20383;-53
2021/12/12 01:07:19;;;;;;;15.52;5.40;;;3.60;99.90;;;;;;5111249;28;20385;-52
2021/12/12 01:10:12;;;;;;;12.98;5.80;;;3.60;99.90;;;;;;5111921;28;20459;-53
2021/12/12 01:12:39;;;;;;;10.80;6.17;;;3.60;99.90;;;;;;5112643;28;20429;-53
2021/12/12 01:15:48;;;;;;;13.32;5.22;;;3.60;99.90;;;;;;5112607;28;20419;-53
2021/12/12 01:18:19;;;;;;;9.80;5.10;;;3.60;99.90;;;;;;5112848;28;20373;-52
2021/12/12 01:21:12;;;;;;;14.10;4.78;;;3.50;99.90;;;;;;5111235;28;20494;-53
2021/12/12 01:23:46;;;;;;;10.30;4.55;;;3.50;99.90;;;;;;5111505;28;20421;-52
2021/12/12 01:26:12;;;;;;;8.73;4.47;;;3.50;99.90;;;;;;5112308;28;20480;-52
2021/12/12 01:28:40;;;;;;;10.55;4.60;;;4.00;99.90;;;;;;5111287;28;20385;-52
2021/12/12 01:31:08;;;;;;;11.75;3.80;;;3.50;99.90;;;;;;5112368;28;20380;-52
2021/12/12 01:33:36;;;;;;;12.50;4.30;;;3.50;99.90;;;;;;5111423;28;20455;-52
2021/12/12 01:36:06;;;;;;;10.60;4.10;;;4.30;99.90;;;;;;5111987;28;20414;-53
2021/12/12 01:38:54;;;;;;;8.30;4.03;;;3.90;99.90;;;;;;5111204;28;20384;-52
2021/12/12 01:41:30;;;;;;;13.20;4.60;;;4.80;99.90;;;;;;5112178;28;20491;-52
2021/12/12 01:44:02;;;;;;;12.50;4.80;;;3.70;99.90;;;;;;5111902;28;20413;-54
2021/12/12 01:46:42;;;;;;;11.68;4.70;;;3.70;99.90;;;;;;5111115;28;20464;-53
2021/12/12 01:49:12;;;;;;;10.77;4.70;;;3.90;99.90;;;;;;5111843;28;20379;-52
2021/12/12 01:51:39;;;;;;;13.07;4.70;;;3.90;99.90;;;;;;5110830;27;20854;-52
2021/12/12 01:54:07;;;;;;;9.32;4.25;;;3.90;99.90;;;;;;5110728;28;20415;-53
2021/12/12 01:56:43;;;;;;;9.55;3.95;;;4.10;99.90;;;;;;5110820;28;20381;-52
2021/12/12 01:59:11;;;;;;;9.18;3.92;;;4.20;99.90;;;;;;5111727;28;20384;-52
2021/12/12 02:01:43;;;;;;;7.90;3.33;;;4.00;99.90;;;;;;5110352;28;20474;-52
2021/12/12 02:04:26;;;;;;;9.00;3.60;;;4.10;99.90;;;;;;5111803;27;20455;-52
2021/12/12 02:06:52;;;;;;;9.30;3.70;;;4.00;99.90;;;;;;5111644;28;20459;-53
2021/12/12 02:09:21;;;;;;;9.73;4.15;;;4.00;99.90;;;;;;5111164;28;20400;-52
2021/12/12 02:11:48;;;;;;;9.38;3.25;;;4.80;99.90;;;;;;5110495;28;20364;-52
2021/12/12 02:14:17;;;;;;;10.27;3.30;;;4.00;99.90;;;;;;5111573;28;20395;-52
2021/12/12 02:16:48;;;;;;;8.10;2.60;;;3.80;99.90;;;;;;5110521;28;20383;-52
2021/12/12 02:19:15;;;;;;;6.03;2.20;;;3.70;99.90;;;;;;5111241;28;20384;-53
2021/12/12 02:22:23;;;;;;;6.40;2.50;;;3.60;99.90;;;;;;5109830;28;20411;-52
2021/12/12 02:35:26;;;;;;;9.55;2.53;;;5.20;99.90;;;;;;5111063;28;20491;-54
2021/12/12 02:37:55;;;;;;;8.48;3.13;;;3.90;99.90;;;;;;5110408;28;20425;-52
2021/12/12 02:40:48;;;;;;;8.40;3.37;;;5.40;99.90;;;;;;5110414;28;20411;-54
2021/12/12 02:43:19;;;;;;;11.93;3.50;;;4.00;99.90;;;;;;5107598;28;20412;-52
2021/12/12 02:45:46;;;;;;;7.40;3.00;;;4.00;99.90;;;;;;5109893;28;20381;-52
2021/12/12 02:48:18;;;;;;;7.47;3.40;;;4.00;99.90;;;;;;5110718;28;20380;-53
2021/12/12 02:50:47;;;;;;;10.18;3.28;;;4.20;99.90;;;;;;5109795;28;20411;-52
2021/12/12 02:53:18;;;;;;;9.25;2.90;;;4.20;99.90;;;;;;5110423;28;20422;-52
2021/12/12 02:55:49;;;;;;;9.38;3.10;;;4.10;99.90;;;;;;5109886;28;20834;-54
2021/12/12 02:58:20;;;;;;;7.68;3.20;;;4.20;99.90;;;;;;5110295;28;20368;-53
2021/12/12 03:01:09;;;;;;;7.18;3.20;;;4.30;99.90;;;;;;5109491;28;20392;-53
2021/12/12 03:03:38;;;;;;;10.70;3.50;;;4.40;99.90;;;;;;5109256;28;20384;-53
2021/12/12 03:06:07;;;;;;;9.10;3.25;;;4.40;99.90;;;;;;5110253;28;20476;-53
2021/12/12 03:08:34;;;;;;;8.50;3.23;;;4.30;99.90;;;;;;5109266;28;20808;-53
2021/12/12 03:11:00;;;;;;;10.00;3.38;;;5.20;99.90;;;;;;5110180;28;20408;-55
2021/12/12 03:13:26;;;;;;;9.70;2.80;;;4.10;99.90;;;;;;5109862;28;20392;-57
2021/12/12 03:15:53;;;;;;;8.20;3.60;;;4.00;99.90;;;;;;5109945;28;20422;-52
2021/12/12 03:18:38;;;;;;;7.20;3.10;;;3.80;99.90;;;;;;5110643;28;20474;-53
2021/12/12 03:21:18;;;;;;;8.40;3.10;;;3.70;99.90;;;;;;5110267;28;20423;-54
2021/12/12 03:23:50;;;;;;;9.30;4.00;;;3.60;99.90;;;;;;5108275;28;20416;-52
2021/12/12 03:26:18;;;;;;;8.27;3.35;;;3.60;99.90;;;;;;5110405;28;20411;-52
2021/12/12 03:28:48;;;;;;;7.10;3.00;;;3.60;99.90;;;;;;5109423;28;20379;-53
2021/12/12 03:31:23;;;;;;;9.50;3.40;;;3.50;99.90;;;;;;5110001;28;20376;-53
2021/12/12 03:33:49;;;;;;;9.50;3.28;;;3.50;99.90;;;;;;5108834;28;21021;-52
2021/12/12 03:36:16;;;;;;;8.73;3.70;;;4.60;99.90;;;;;;5108682;28;20417;-53
2021/12/12 03:38:51;;;;;;;8.45;3.58;;;3.40;99.90;;;;;;5109168;28;20381;-53
2021/12/12 03:41:25;;;;;;;9.60;4.00;;;3.70;99.90;;;;;;5109626;28;20392;-53
2021/12/12 03:43:55;;;;;;;11.33;4.00;;;3.20;99.90;;;;;;5109297;28;20400;-52
2021/12/12 03:46:21;;;;;;;9.77;4.70;;;3.20;99.90;;;;;;5109642;28;20446;-52
2021/12/12 03:48:48;;;;;;;11.13;4.55;;;3.70;99.90;;;;;;5108790;28;21185;-52
2021/12/12 03:51:16;;;;;;;10.32;4.50;;;3.20;99.90;;;;;;5110072;28;20383;-55
2021/12/12 03:53:42;;;;;;;9.40;4.37;;;3.20;99.90;;;;;;5109635;28;20395;-52
2021/12/12 03:56:11;;;;;;;10.07;4.43;;;3.20;99.90;;;;;;5109657;28;20412;-52
2021/12/12 03:58:38;;;;;;;9.75;4.68;;;3.30;99.90;;;;;;5108981;28;20459;-53
2021/12/12 04:01:07;;;;;;;11.38;4.40;;;3.90;99.90;;;;;;5109788;28;20408;-53
2021/12/12 04:03:33;;;;;;;10.18;4.75;;;3.20;99.90;;;;;;5109651;28;20860;-53
2021/12/12 04:06:03;;;;;;;10.40;5.23;;;3.10;99.90;;;;;;5109468;28;20377;-53
2021/12/12 04:08:34;;;;;;;10.50;4.70;;;2.80;99.90;;;;;;5109036;28;20562;-53
2021/12/12 04:10:59;;;;;;;10.00;5.03;;;2.70;99.90;;;;;;5109928;28;20404;-52
2021/12/12 04:13:25;;;;;;;12.25;5.00;;;3.20;99.90;;;;;;5109584;28;20404;-52
2021/12/12 04:15:56;;;;;;;10.65;5.20;;;2.50;99.90;;;;;;5110247;28;20813;-53
2021/12/12 04:18:26;;;;;;;12.45;5.30;;;2.60;99.90;;;;;;5110258;28;20438;-53
2021/12/12 04:20:55;;;;;;;10.38;4.85;;;2.40;99.90;;;;;;5109097;28;20746;-52
2021/12/12 04:23:25;;;;;;;10.80;5.70;;;2.40;99.90;;;;;;5109604;28;20456;-52
2021/12/12 04:25:51;;;;;;;12.80;5.03;;;2.90;99.90;;;;;;5108911;28;20388;-52
2021/12/12 04:28:17;;;;;;;12.13;5.53;;;3.10;99.90;;;;;;5109736;28;20416;-53
2021/12/12 04:30:43;;;;;;;9.70;5.15;;;2.40;99.90;;;;;;5108922;28;20413;-52
2021/12/12 04:33:10;;;;;;;15.10;5.70;;;2.20;99.90;;;;;;5109731;28;20461;-52
2021/12/12 04:35:36;;;;;;;10.70;4.97;;;2.20;99.90;;;;;;5108575;28;20403;-53
2021/12/12 04:38:05;;;;;;;16.80;5.00;;;2.30;99.90;;;;;;5109371;28;20404;-52
2021/12/12 04:40:33;;;;;;;10.00;5.05;;;2.50;99.90;;;;;;5108639;28;20461;-58
2021/12/12 04:43:00;;;;;;;12.43;5.32;;;2.50;99.90;;;;;;5109433;28;20393;-54
2021/12/12 04:45:51;;;;;;;12.33;5.07;;;2.80;99.90;;;;;;5109641;28;20729;-53
2021/12/12 04:51:22;;;;;;;10.05;4.57;;;2.80;99.90;;;;;;5112701;28;20885;-53
2021/12/12 04:54:07;;;;;;;10.03;4.50;;;2.70;99.90;;;;;;5112274;28;20387;-52
2021/12/12 04:56:47;;;;;;;10.43;4.55;;;2.70;99.90;;;;;;5111777;28;20376;-54
2021/12/12 04:59:31;;;;;;;9.30;4.43;;;2.60;99.90;;;;;;5113090;28;20395;-53
2021/12/12 05:02:04;;;;;;;10.25;4.40;;;2.70;99.90;;;;;;5112574;28;20753;-52
2021/12/12 05:04:42;;;;;;;8.80;3.85;;;2.70;99.90;;;;;;5112010;28;20384;-57
2021/12/12 05:07:21;;;;;;;9.63;3.60;;;2.70;99.90;;;;;;5113043;28;20585;-52
2021/12/12 05:10:21;;;;;;;8.13;3.83;;;2.80;99.90;;;;;;5111695;28;20761;-52
2021/12/12 05:12:54;;;;;;;9.63;4.10;;;2.80;99.90;;;;;;5110285;28;20392;-53
2021/12/12 05:15:24;;;;;;;6.97;3.30;;;2.90;99.90;;;;;;5112549;28;20408;-52
2021/12/12 05:17:56;;;;;;;8.57;3.40;;;3.00;99.90;;;;;;5111621;28;21056;-52
2021/12/12 05:20:30;;;;;;;9.43;3.88;;;2.80;99.90;;;;;;5112276;28;20451;-52
2021/12/12 05:23:00;;;;;;;9.05;3.90;;;2.90;99.90;;;;;;5111974;28;20869;-53
2021/12/12 05:25:34;;;;;;;8.15;3.85;;;2.80;99.90;;;;;;5112167;28;20372;-53
2021/12/12 05:28:02;;;;;;;7.70;3.95;;;2.70;99.90;;;;;;5112421;28;20380;-52
2021/12/12 05:30:32;;;;;;;8.43;4.10;;;2.80;99.90;;;;;;5112025;28;20384;-52
2021/12/12 05:33:00;;;;;;;9.32;4.30;;;3.60;99.90;;;;;;5112025;28;20418;-53
2021/12/12 05:35:31;;;;;;;8.80;3.85;;;3.60;99.90;;;;;;5110878;28;20884;-52
2021/12/12 05:37:59;;;;;;;9.85;4.40;;;1.70;99.90;;;;;;5111491;28;20723;-52
2021/12/12 05:40:28;;;;;;;10.50;4.78;;;2.50;99.90;;;;;;5111931;28;20392;-52
2021/12/12 05:42:58;;;;;;;10.25;4.30;;;2.40;99.90;;;;;;5111355;28;20457;-52
2021/12/12 05:45:26;;;;;;;9.40;4.30;;;2.40;99.90;;;;;;5111972;28;20373;-52
2021/12/12 05:47:51;;;;;;;8.77;4.40;;;2.40;99.90;;;;;;5111183;28;20372;-52
2021/12/12 05:50:19;;;;;;;9.60;4.15;;;2.30;99.90;;;;;;5111459;28;20387;-54
2021/12/12 05:52:45;;;;;;;8.37;4.50;;;2.20;99.90;;;;;;5110751;28;20368;-53
2021/12/12 05:55:14;;;;;;;10.35;4.88;;;3.90;99.90;;;;;;5111479;28;20476;-53
2021/12/12 05:57:43;;;;;;;8.32;4.50;;;3.60;99.90;;;;;;5110452;28;20379;-53
2021/12/12 06:00:13;;;;;;;11.00;4.57;;;2.30;99.90;;;;;;5111730;28;20443;-53
2021/12/12 06:02:39;;;;;;;9.63;4.80;;;2.10;99.90;;;;;;5110874;28;20420;-53
2021/12/12 06:05:06;;;;;;;13.00;4.63;;;3.70;99.90;;;;;;5111561;28;20400;-53
2021/12/12 06:07:33;;;;;;;10.30;4.88;;;2.00;99.90;;;;;;5110358;27;20392;-55
2021/12/12 06:10:03;;;;;;;9.73;5.03;;;2.10;99.90;;;;;;5111156;28;20392;-50
2021/12/12 06:12:33;;;;;;;10.23;4.88;;;2.00;99.90;;;;;;5111289;28;20412;-51
2021/12/12 06:14:59;;;;;;;10.98;5.55;;;1.40;99.90;;;;;;5111278;28;20465;-51
2021/12/12 06:17:26;;;;;;;9.85;4.88;;;2.00;99.90;;;;;;5111012;28;20474;-50
2021/12/12 06:19:53;;;;;;;11.68;5.25;;;2.60;99.90;;;;;;5110420;28;20674;-50
2021/12/12 06:22:21;;;;;;;8.98;5.10;;;3.10;99.90;;;;;;5110751;28;20949;-52
2021/12/12 06:24:49;;;;;;;11.88;4.90;;;2.10;99.90;;;;;;5110204;28;20829;-52
2021/12/12 06:27:18;;;;;;;12.00;6.00;;;2.00;99.90;;;;;;5110961;28;20379;-50
2021/12/12 06:29:47;;;;;;;11.70;5.55;;;2.00;99.90;;;;;;5110824;28;20387;-51
2021/12/12 06:32:13;;;;;;;11.70;6.20;;;3.20;99.90;;;;;;5111555;28;20404;-50
2021/12/12 06:34:40;;;;;;;9.80;5.47;;;1.90;99.90;;;;;;5110496;28;20383;-50
2021/12/12 06:37:06;;;;;;;12.27;5.88;;;3.40;99.90;;;;;;5111008;28;20372;-49
2021/12/12 06:39:32;;;;;;;10.02;5.43;;;1.90;99.90;;;;;;5110416;28;20433;-54
2021/12/12 06:41:59;;;;;;;10.02;4.90;;;3.30;99.90;;;;;;5109373;28;20388;-50
2021/12/12 06:44:25;;;;;;;10.85;5.80;;;1.90;99.90;;;;;;5110218;28;20380;-50
2021/12/12 06:46:53;;;;;;;10.45;5.32;;;2.00;99.90;;;;;;5110063;28;20699;-53
2021/12/12 06:49:19;;;;;;;11.40;5.78;;;2.00;99.90;;;;;;5111068;28;20373;-53
2021/12/12 06:51:53;;;;;;;11.95;5.50;;;2.00;99.90;;;;;;5110098;28;20484;-52
2021/12/12 06:54:21;;;;;;;11.30;5.37;;;2.80;99.90;;;;;;5110876;28;20380;-52
2021/12/12 06:56:49;;;;;;;10.68;5.05;;;2.60;99.90;;;;;;5110235;28;20527;-52
2021/12/12 06:59:15;;;;;;;10.32;5.40;;;2.00;99.90;;;;;;5109190;28;20387;-52
2021/12/12 07:01:42;;;;;;;12.40;5.40;;;2.00;99.90;;;;;;5109958;28;20396;-52
2021/12/12 07:04:10;;;;;;;12.13;5.50;;;3.30;99.90;;;;;;5102441;28;21238;-56
2021/12/12 07:06:38;;;;;;;10.98;4.90;;;2.00;99.90;;;;;;5109804;28;20396;-52
2021/12/12 07:09:08;;;;;;;13.60;5.10;;;2.00;99.90;;;;;;5109073;28;20391;-53
2021/12/12 07:11:36;;;;;;;11.00;4.70;;;3.70;99.90;;;;;;5109943;28;20396;-57
2021/12/12 07:14:04;;;;;;;12.13;5.75;;;2.40;99.90;;;;;;5110258;28;20493;-53
2021/12/12 07:16:31;;;;;;;12.27;5.13;;;2.10;99.90;;;;;;5110116;28;20521;-53
2021/12/12 07:18:58;;;;;;;10.93;4.88;;;2.20;99.90;;;;;;5109810;28;20371;-53
2021/12/12 07:21:25;;;;;;;10.07;4.72;;;2.20;99.90;;;;;;5109549;28;20412;-53
2021/12/12 07:23:57;;;;;;;11.57;4.90;;;2.20;99.90;;;;;;5109656;28;20661;-53
2021/12/12 07:26:24;;;;;;;9.80;4.30;;;2.60;99.90;;;;;;5109877;28;20369;-53
2021/12/12 07:28:52;;;;;;;9.40;4.88;;;3.30;99.90;;;;;;5109324;28;20421;-53
2021/12/12 07:31:21;;;;;;;8.77;4.68;;;2.30;99.90;;;;;;5109930;28;20376;-53
2021/12/12 07:33:52;;;;;;;9.50;5.05;;;2.40;99.90;;;;;;5109633;28;20380;-52
2021/12/12 07:36:19;;;;;;;10.25;5.05;;;2.90;99.90;;;;;;5108537;28;20885;-53
2021/12/12 07:38:47;;;;;;;9.32;5.00;;;4.10;99.90;;;;;;5109052;28;20380;-52
2021/12/12 07:41:18;;;;;;;11.30;4.90;;;2.50;99.90;;;;;;5109340;28;20465;-52
2021/12/12 07:43:44;;;;;;;9.90;4.97;;;2.60;99.90;;;;;;5108885;28;20384;-53
2021/12/12 07:46:10;;;;;;;11.60;5.50;;;3.60;99.90;;;;;;5109717;28;20403;-53
2021/12/12 07:48:39;;;;;;;10.03;5.40;;;2.60;99.90;;;;;;5108599;28;20368;-57
2021/12/12 07:51:06;;;;;;;11.88;5.20;;;2.70;99.90;;;;;;5108101;28;20394;-52
2021/12/12 07:53:32;;;;;;;12.25;5.75;;;2.70;99.90;;;;;;5109484;28;20376;-58
2021/12/12 07:55:59;;;;;;;12.70;5.10;;;2.70;99.90;;;;;;5109755;28;20372;-53
2021/12/12 07:58:26;;;;;;;10.68;5.20;;;3.10;99.90;;;;;;5109619;28;20810;-54
2021/12/12 08:00:53;;;;;;;10.85;5.38;;;4.10;99.90;;;;;;5108741;28;21170;-55
2021/12/12 08:03:26;;;;;;;10.77;5.20;;;2.90;99.90;;;;;;5109206;27;20385;-53
2021/12/12 08:05:53;;;;;;;11.68;5.45;;;3.00;99.90;;;;;;5108258;28;20971;-53
2021/12/12 08:08:19;;;;;;;10.95;5.10;;;3.20;99.90;;;;;;5109538;28;20375;-52
2021/12/12 08:10:46;;;;;;;9.57;4.95;;;3.20;99.90;;;;;;5108696;28;20432;-53
2021/12/12 08:13:14;;;;;;;8.85;4.60;;;3.10;99.90;;;;;;5108987;28;20384;-53
2021/12/12 08:15:40;;;;;;;8.27;4.20;;;3.30;99.90;;;;;;5108434;28;20928;-53
2021/12/12 08:18:09;;;;;;;9.45;4.40;;;4.00;99.90;;;;;;5109480;28;20383;-53
2021/12/12 08:20:37;;;;;;;9.20;4.13;;;3.60;99.90;;;;;;5110758;28;20506;-57
2021/12/12 08:23:04;;;;;;;8.25;4.00;;;3.80;99.90;;;;;;5112941;28;20893;-53
2021/12/12 08:25:30;;;;;;;7.70;3.50;;;4.40;99.90;;;;;;5112912;28;20381;-53
2021/12/12 08:28:03;;;;;;;8.10;3.40;;;3.90;99.90;;;;;;5112042;28;20387;-53
2021/12/12 08:30:30;;;;;;;7.70;3.60;;;4.00;99.90;;;;;;5112835;28;20384;-53
2021/12/12 08:32:56;;;;;;;7.03;3.20;;;4.10;99.90;;;;;;5112243;28;20372;-53
2021/12/12 08:35:24;;;;;;;7.68;3.75;;;4.10;99.90;;;;;;5145428;27;20584;-54
2021/12/12 08:37:50;;;;;;;9.07;3.75;;;4.40;99.90;;;;;;5112001;28;20369;-52
2021/12/12 08:40:25;;;;;;;7.30;3.25;;;4.10;99.90;;;;;;5112451;28;20861;-53
2021/12/12 08:42:53;;;;;;;6.67;3.13;;;4.00;99.90;;;;;;5111872;28;20483;-51
2021/12/12 08:45:25;;;;;;;8.10;3.40;;;3.90;99.90;;;;;;5112629;28;20396;-53
2021/12/12 08:47:53;;;;;;;8.05;3.80;;;4.00;99.90;;;;;;5110421;28;20438;-52
2021/12/12 08:50:24;;;;;;;14.90;3.05;;;4.30;99.90;;;;;;5112443;28;20737;-53
2021/12/12 08:52:50;;;;;;;7.03;3.20;;;4.40;99.90;;;;;;5111385;28;20387;-52
2021/12/12 08:55:21;;;;;;;6.70;3.08;;;4.50;99.90;;;;;;5112319;28;20372;-52
2021/12/12 09:00:23;;;;;;;6.97;3.10;;;4.80;99.90;;;;;;5112249;28;20459;-53
2021/12/12 09:02:51;;;;;;;9.60;3.70;;;5.50;99.90;;;;;;5111733;28;20878;-55
2021/12/12 09:05:23;;;;;;;7.43;2.95;;;5.00;99.90;;;;;;5112045;28;20377;-53
2021/12/12 09:07:51;;;;;;;7.22;2.90;;;5.10;99.90;;;;;;5111504;28;20426;-52
2021/12/12 09:10:30;;;;;;;6.80;3.10;;;5.10;99.90;;;;;;5112342;28;20373;-52
2021/12/12 09:13:17;;;;;;;6.35;2.70;;;5.20;99.90;;;;;;5111097;27;20688;-53
2021/12/12 09:16:04;;;;;;;7.70;3.38;;;5.30;99.90;;;;;;5111802;28;20465;-52
2021/12/12 09:18:44;;;;;;;6.72;3.00;;;5.40;99.90;;;;;;5112271;27;20396;-52
2021/12/12 09:21:23;;;;;;;6.72;3.00;;;5.30;99.90;;;;;;5112101;28;20411;-52
2021/12/12 09:24:12;;;;;;;7.20;2.90;;;5.30;99.90;;;;;;5111373;28;20376;-53
2021/12/12 09:26:46;;;;;;;6.90;2.70;;;5.20;99.90;;;;;;5111306;28;20380;-57
2021/12/12 09:29:42;;;;;;;6.30;2.72;;;5.30;99.90;;;;;;5111949;28;20746;-53
2021/12/12 09:32:24;;;;;;;6.68;2.72;;;5.60;99.90;;;;;;5109593;28;20437;-53
2021/12/12 09:34:59;;;;;;;7.70;2.85;;;5.80;99.90;;;;;;5109713;28;20515;-52
2021/12/12 09:37:52;;;;;;;6.10;2.70;;;5.80;99.90;;;;;;5111220;28;20380;-52
2021/12/12 09:41:04;;;;;;;6.88;2.63;;;5.90;99.90;;;;;;5110262;28;20558;-52
2021/12/12 09:43:29;;;;;;;7.50;2.80;;;6.10;99.90;;;;;;5109365;28;20408;-53
2021/12/12 09:46:38;;;;;;;6.70;2.70;;;6.30;99.90;;;;;;5110854;28;20574;-51
2021/12/12 09:52:35;;;;;;;6.75;2.80;;;7.70;99.90;;;;;;5111182;28;20372;-52
2021/12/12 09:55:08;;;;;;;5.97;2.50;;;7.70;99.90;;;;;;5111011;28;20948;-50
2021/12/12 09:57:52;;;;;;;6.72;2.45;;;7.10;99.90;;;;;;5111208;28;20389;-51
2021/12/12 10:00:29;;;;;;;6.80;2.73;;;6.70;99.90;;;;;;5111640;28;21253;-53
2021/12/12 10:03:13;;;;;;;7.60;2.58;;;6.60;99.90;;;;;;5110437;28;20377;-53
2021/12/12 10:06:00;;;;;;;6.90;2.80;;;6.20;99.90;;;;;;5110217;28;20380;-58
2021/12/12 10:08:54;;;;;;;8.63;2.90;;;6.00;99.90;;;;;;5110927;28;20384;-52
2021/12/12 10:11:54;;;;;;;6.40;2.70;;;6.00;99.90;;;;;;5111185;28;20388;-52
2021/12/12 10:14:41;;;;;;;6.97;2.70;;;5.90;99.90;;;;;;5111203;28;20436;-52
2021/12/12 10:17:16;;;;;;;6.70;2.60;;;5.90;99.90;;;;;;5110573;28;20423;-55
2021/12/12 10:19:42;;;;;;;6.43;2.55;;;5.80;99.90;;;;;;5109204;28;20885;-54
2021/12/12 10:22:33;;;;;;;7.10;2.70;;;5.90;99.90;;;;;;5110346;28;20408;-53
2021/12/12 10:25:11;;;;;;;6.23;2.50;;;5.60;99.90;;;;;;5109724;28;20408;-52
2021/12/12 10:27:50;;;;;;;6.45;2.60;;;5.30;99.90;;;;;;5110633;28;20425;-57
2021/12/12 10:30:24;;;;;;;8.50;2.90;;;5.50;99.90;;;;;;5110634;28;20487;-53
2021/12/12 10:33:18;;;;;;;7.53;2.88;;;5.50;99.90;;;;;;5109949;28;20409;-52
2021/12/12 10:36:00;;;;;;;7.47;3.10;;;5.50;99.90;;;;;;5108738;28;20445;-53
2021/12/12 10:39:00;;;;;;;9.60;2.92;;;5.40;99.90;;;;;;5110340;28;20729;-53
2021/12/12 10:41:48;;;;;;;9.00;2.97;;;5.30;99.90;;;;;;5110354;28;20404;-53
2021/12/12 10:44:21;;;;;;;6.35;2.47;;;5.50;99.90;;;;;;5109774;28;20392;-53
2021/12/12 10:47:15;;;;;;;7.50;3.00;;;5.60;99.90;;;;;;5109371;28;20787;-53
2021/12/12 10:50:17;;;;;;;7.75;2.70;;;5.70;99.90;;;;;;5109642;28;20411;-53
2021/12/12 10:53:07;;;;;;;7.80;2.70;;;6.00;99.90;;;;;;5109442;28;20393;-54
2021/12/12 10:55:53;;;;;;;6.50;2.58;;;6.10;99.90;;;;;;5109695;28;20426;-54
2021/12/12 10:58:37;;;;;;;6.70;2.50;;;6.30;99.90;;;;;;5109966;28;20676;-53
2021/12/12 11:01:14;;;;;;;8.60;2.60;;;7.70;99.90;;;;;;5108452;28;20881;-53
2021/12/12 11:04:01;;;;;;;5.82;2.30;;;6.60;99.90;;;;;;5107649;28;20463;-55
2021/12/12 11:06:33;;;;;;;6.18;2.25;;;6.80;99.90;;;;;;5110353;28;20380;-50
2021/12/12 11:09:01;;;;;;;7.20;2.70;;;7.10;99.90;;;;;;5126618;27;20435;-52
2021/12/12 11:11:34;;;;;;;8.50;3.10;;;7.00;99.90;;;;;;5130573;27;20466;-50
2021/12/12 11:14:21;;;;;;;6.10;2.60;;;6.80;99.90;;;;;;5115576;27;20457;-50
2021/12/12 11:16:54;;;;;;;12.55;6.85;;;6.80;99.90;;;;;;5109447;28;20745;-50
2021/12/12 11:19:29;;;;;;;7.27;3.30;;;6.90;99.90;;;;;;5109716;28;20457;-50
2021/12/12 11:22:04;;;;;;;6.40;2.90;;;6.90;99.90;;;;;;5109081;28;20436;-50
2021/12/12 11:24:39;;;;;;;7.75;3.80;;;6.70;99.90;;;;;;5108074;28;20876;-51
2021/12/12 11:27:14;;;;;;;10.73;5.30;;;6.80;99.90;;;;;;5107921;28;20504;-50
2021/12/12 11:29:50;;;;;;;6.30;2.95;;;7.00;99.90;;;;;;5111418;27;20383;-56
2021/12/12 11:32:24;;;;;;;6.30;2.95;;;7.00;99.90;;;;;;5127263;27;20381;-51
2021/12/12 11:34:53;;;;;;;6.30;2.47;;;6.80;99.90;;;;;;5109223;28;20425;-53
2021/12/12 11:37:42;;;;;;;6.88;2.60;;;6.90;99.90;;;;;;5118522;28;20395;-51
2021/12/12 11:40:20;;;;;;;6.75;2.85;;;7.00;99.90;;;;;;5129794;28;20403;-52
2021/12/12 11:42:57;;;;;;;8.43;3.03;;;7.10;99.90;;;;;;5112007;27;20412;-51
2021/12/12 11:45:41;;;;;;;8.27;3.40;;;7.20;99.90;;;;;;5121953;27;20780;-52
2021/12/12 11:48:24;;;;;;;8.07;3.30;;;7.10;99.90;;;;;;5118103;28;20382;-52
2021/12/12 11:51:16;;;;;;;6.25;2.47;;;6.90;99.90;;;;;;5110876;28;20388;-52
2021/12/12 11:53:52;;;;;;;8.77;3.78;;;6.90;99.90;;;;;;5112535;28;20427;-56
2021/12/12 11:56:34;;;;;;;7.40;3.05;;;7.20;99.90;;;;;;5121482;27;20502;-52
2021/12/12 11:59:03;;;;;;;6.70;2.10;;;7.30;99.90;;;;;;5123834;27;20392;-53
2021/12/12 12:01:47;;;;;;;7.73;3.43;;;7.50;99.90;;;;;;5114058;27;20976;-53
2021/12/12 12:04:35;;;;;;;6.88;2.10;;;7.50;99.90;;;;;;5111959;27;20429;-54
2021/12/12 12:07:29;;;;;;;6.80;2.50;;;7.30;99.90;;;;;;5113358;27;20371;-53
2021/12/12 12:09:55;;;;;;;6.85;2.30;;;7.50;99.90;;;;;;5110309;28;20406;-52
2021/12/12 12:12:42;;;;;;;7.90;2.92;;;7.70;99.90;;;;;;5112760;28;20384;-53
2021/12/12 12:15:26;;;;;;;11.25;3.03;;;7.90;99.90;;;;;;5110471;28;20404;-53
2021/12/12 12:18:01;;;;;;;6.72;2.65;;;7.90;99.90;;;;;;5107204;28;20376;-53
2021/12/12 12:20:44;;;;;;;7.45;3.15;;;7.90;99.90;;;;;;5110147;28;20404;-53
2021/12/12 12:27:14;;;;;;;6.82;2.30;;;8.10;99.90;;;;;;5112113;28;20396;-52
2021/12/12 12:29:27;;;;;;;10.35;3.00;;;8.20;99.90;;;;;;5100599;28;20377;-53
2021/12/12 12:32:05;;;;;;;8.38;3.22;;;8.20;99.90;;;;;;5109629;28;20388;-52
2021/12/12 12:35:07;;;;;;;6.55;2.13;;;8.00;99.90;;;;;;5109885;28;20392;-52
2021/12/12 12:38:18;;;;;;;6.30;2.10;;;8.10;99.90;;;;;;5110093;28;20593;-53
2021/12/12 12:41:21;;;;;;;8.65;2.30;;;8.00;99.90;;;;;;5081009;28;20400;-53
2021/12/12 12:44:17;;;;;;;6.53;1.90;;;8.00;99.90;;;;;;5111302;28;20408;-53
2021/12/12 12:47:16;;;;;;;5.60;1.90;;;7.90;99.90;;;;;;5110730;28;20380;-56
2021/12/12 12:50:42;;;;;;;5.30;1.80;;;7.90;99.90;;;;;;5110882;28;20886;-56
2021/12/12 12:53:35;;;;;;;5.80;1.90;;;7.90;99.90;;;;;;5040426;28;20391;-54
2021/12/12 12:56:25;;;;;;;6.80;2.10;;;7.90;99.90;;;;;;5098693;28;20393;-52
2021/12/12 12:59:41;;;;;;;6.05;1.95;;;7.90;99.90;;;;;;5108880;28;20448;-52
2021/12/12 13:02:14;;;;;;;6.82;3.00;;;7.80;99.90;;;;;;5073790;28;20427;-53
2021/12/12 13:04:48;;;;;;;8.00;2.45;;;7.80;99.90;;;;;;5111462;28;21204;-57
2021/12/12 13:07:14;;;;;;;7.57;2.50;;;7.90;99.90;;;;;;5107381;28;20409;-53
2021/12/12 13:09:50;;;;;;;11.07;5.37;;;7.70;99.90;;;;;;5111595;28;20383;-57
2021/12/12 13:12:45;;;;;;;8.25;3.10;;;7.70;99.90;;;;;;5109951;28;21064;-52
2021/12/12 13:15:32;;;;;;;18.15;9.02;;;7.70;99.90;;;;;;5107533;28;20420;-52
2021/12/12 13:18:31;;;;;;;5.93;2.00;;;7.60;99.90;;;;;;5109636;28;20396;-52
2021/12/12 13:21:21;;;;;;;7.32;2.05;;;7.40;99.90;;;;;;5107774;27;20404;-53
2021/12/12 13:24:22;;;;;;;16.40;6.20;;;7.40;99.90;;;;;;5103479;28;20372;-52
2021/12/12 13:27:23;;;;;;;6.13;2.60;;;7.30;99.90;;;;;;5088956;28;20798;-52
2021/12/12 13:30:15;;;;;;;5.03;2.00;;;7.40;99.90;;;;;;5091374;28;20393;-52
2021/12/12 13:33:17;;;;;;;6.30;2.38;;;7.30;99.90;;;;;;5104188;28;20408;-56
2021/12/12 13:35:57;;;;;;;8.73;3.60;;;7.30;99.90;;;;;;5047231;28;20575;-57
2021/12/12 13:38:41;;;;;;;7.70;3.58;;;7.30;99.90;;;;;;5091307;28;20860;-52
2021/12/12 13:41:47;;;;;;;6.82;2.67;;;7.40;99.90;;;;;;5090573;28;20949;-53
2021/12/12 13:44:34;;;;;;;6.35;2.42;;;7.40;99.90;;;;;;5105774;28;20892;-52
2021/12/12 13:47:17;;;;;;;7.07;2.10;;;7.50;99.90;;;;;;5110334;28;20495;-53
2021/12/12 13:50:03;;;;;;;8.68;3.35;;;7.50;99.90;;;;;;5110219;28;20411;-57
2021/12/12 13:53:00;;;;;;;7.45;2.30;;;7.60;99.90;;;;;;5090968;28;20432;-53
2021/12/12 13:55:50;;;;;;;5.75;2.10;;;7.60;99.90;;;;;;5091462;28;20370;-52